Cement City, Michigan
Current Conditions -  °F | °C
As of 2:18 AM on Saturday 25 Oct 2014 (Local Time) from KJXN Reporting Station
Moderate Fog Moderate Fog  
Wind Chill: 42°   Ceiling: Unl
Heat Index: 42°   Visibility: 0.5mi
Dew Point: 41°   Wind: 3mph
Humidity: 96%   Direction: 230°SW
Pressure: 29.93"   Gusts: NA
Location:  42.07°N, 84.33°W
Report Text: KJXN 250618Z 23003KT 1/2SM FG CLR 06/05 A2993 RMK AO2 T00560050
Loading
Personal Weather Stations






























Interactive Weather Map
Tropical Storm Tracking
New forecast layout! Learn more

10-Day Weather Forecast

Advertisements
Track Severe Weather on mobile